| Date | Time | Temp. (oF) | Dew Point (oF) | Rel. Hum. (%) | Press. (in.) | Wind Dir. (deg.) | Wind Speed (mph) | Hourly Rainfall (i n.) |
|
|---|---|---|---|---|---|---|---|---|---|
| 1 | 06/22 | 24:00 | 59 | 54 | 85 | 30.39 | 50 | 0 | 0.00 |
| 2 | 06/21 | 23:00 | 60 | 55 | 84 | 30.40 | 50 | 0 | 0.00 |
| 3 | 06/21 | 22:00 | 62 | 56 | 81 | 30.40 | 50 | 0 | 0.00 |
| 4 | 06/21 | 21:00 | 65 | 58 | 80 | 30.38 | 50 | 0 | 0.00 |
| 5 | 06/21 | 20:00 | 67 | 59 | 78 | 30.34 | 50 | 0 | 0.00 |
| 6 | 06/21 | 19:00 | 68 | 60 | 77 | 30.33 | 50 | 1 | 0.00 |
| 7 | 06/21 | 18:00 | 69 | 61 | 76 | 30.34 | 60 | 2 | 0.00 |
| 8 | 06/21 | 17:00 | 69 | 61 | 78 | 30.34 | 310 | 2 | 0.00 |
| 9 | 06/21 | 16:00 | 68 | 61 | 80 | 30.33 | 250 | 6 | 0.01 |
| 10 | 06/21 | 15:00 | 66 | 59 | 81 | 30.35 | 20 | 1 | 0.00 |
| 11 | 06/21 | 14:00 | 65 | 59 | 83 | 30.36 | 360 | 1 | 0.00 |
| 12 | 06/21 | 13:00 | 65 | 59 | 83 | 30.37 | 10 | 4 | 0.00 |
| 13 | 06/21 | 12:00 | 65 | 59 | 83 | 30.40 | 90 | 2 | 0.00 |
| 14 | 06/21 | 11:00 | 65 | 60 | 85 | 30.39 | 290 | 4 | 0.00 |
| 15 | 06/21 | 10:00 | 62 | 58 | 87 | 30.39 | 70 | 1 | 0.00 |
| 16 | 06/21 | 09:00 | 60 | 56 | 89 | 30.40 | 10 | 2 | 0.00 |
| 17 | 06/21 | 08:00 | 59 | 56 | 90 | 30.41 | 10 | 1 | 0.00 |
| 18 | 06/21 | 07:00 | 58 | 55 | 90 | 30.43 | 10 | 1 | 0.00 |
| 19 | 06/21 | 06:00 | 58 | 55 | 90 | 30.42 | 10 | 2 | 0.00 |
| 20 | 06/21 | 05:00 | 59 | 56 | 90 | 30.41 | 120 | 1 | 0.00 |
| 21 | 06/21 | 04:00 | 59 | 55 | 89 | 30.41 | 130 | 1 | 0.00 |
| 22 | 06/21 | 03:00 | 59 | 55 | 89 | 30.42 | 150 | 1 | 0.02 |
| 23 | 06/21 | 02:00 | 59 | 55 | 88 | 30.43 | 150 | 2 | 0.00 |
| 24 | 06/21 | 01:00 | 59 | 55 | 87 | 30.44 | 150 | 0 | 0.02 |